Aérodrome :
LOGIN :

S'inscrire | Disclaimer

   EN    FR    IT 

 










Légende :    VFR   VFR Marginal   IFR   IFR Intensif   IFR Très Intensif
Visi : 
Plafond : 
>= 8 km
>= 3000ft
5 à 8 km
1000 à 3000 ft
1500m à 5 km
500 à 1000 ft
800 à 1500m
200 à 500 ft
< 800m
< 200 ft
Symboles :   Orages  Brouillard  Fortes neiges  Fortes précipitations  Vent > 20 kt
SIGMETs :   Divers  Orages  Givrage  Turbulence  Onde Orograph.  Cendres Volcan.







- Altitude de l'aérodrome : 194 ft
- Code IATA : IEG


EPZG - Zielona Gora Babimost

DERNIER METAR :
  • 152230Z 06001KT 8000 MIFG NSC M02/M02 Q1031

METARs EXPIRÉS :
  • 152200Z 00000KT 8000 NSC M01/M01 Q1031
  • 152130Z 00000KT CAVOK M02/M02 Q1031
  • 152100Z 19002KT CAVOK M01/M01 Q1031
  • 152030Z 23003KT 8000 NSC M01/M01 Q1032
  • 152000Z 00000KT 8000 NSC M00/M00 Q1032

TAF TAF EPZG
Valide du 15 à 21h jusqu'au 16 à 06h UTC


152030Z 1521/1606 VRB01KT 8000 NSC
BECMG 1521/1524 4000 BR
TEMPO 1600/1606 1200 BR
Pas de NOTAMs connus pour ce terrain.



MET'MAP, la Météo Aéronautique d'un coup d'oeil ! - Copyright ORBIFLY Décembre 2007 - Disclaimer

ORBIFLY MET'MAP TEAM :

Programmation & Développement : Alexandra Zaïnal
Conception & Développement : Baudouin d'Aumeries
Co-Programmation & Développement : Marc-Olivier Méhu
Soutien technique & logistique : Manuel Goepfert

Contact : metmap@orbifly.com




SOURCES & CREDITS :

   NOAA